Accueil
METAR-TAF:

METAR-TAF

Aéroports :

Aéroport international de Genève

Genève, Suisse

latitude: 46-15N, longitude: 006-08E, altitude: 420 m

Observation

Le bulletin a été fait il y a 24 minutes, à 18:50 UTC
Vent 3 kt de nord/nord-est
Température 13°C
Humidité 44%
Pression 1024 hPa
Visibilité 10 km ou plus
pas de nuages en-dessous de 1500 mètres et pas de cumulonimbus.

METAR: LSGG 061850Z 02003KT CAVOK 13/01 Q1024 NOSIG

Heure: 21:14 (19:14 UTC)

Prévision

Le bulletin a été fait il y a 1 heure et 49 minutes, à 17:25 UTC
Prévision valable du 06 à 18 UTC au 07 à 24 UTC
Vent 3 kt de direction variable
Visibilité 10 km ou plus
pas de nuages en-dessous de 1500 mètres et pas de cumulonimbus.

TAF: LSGG 061725Z 0618/0724 VRB03KT CAVOK TX21/0715Z TN04/0705Z

Observations et prévisions météorologiques de plus de 4000 aéroports (messages METAR et TAF).

Les stations disponibles sont représentées par des disques jaunes et rouges sur la carte.

Passer la souris dessus pour voir le nom de la station.

Cliquer dessus pour voir les observations et prévisions météorologiques.

Pour changer de carte: cliquez sur les boutons verts avec une croix noire pour zoomer, sur le bouton vert avec un tiret pour effectuer un zoom arrière, ou sur les flèches vertes pour les cartes adjacentes.


METAR-TAF: